Time;durP1;ratioP1;P1;durP2;ratioP2;P2;SDS_P1;SDS_P2;PMS_P1;PMS_P2;Temp;Humidity;BMP_temperature;BMP_pressure;BME280_temperature;BME280_humidity;BME280_pressure;Samples;Min_cycle;Max_cycle;Signal;HPM_P1;HPM_P2
2022/11/30 00:01:49;;;;;;;11.02;9.77;;;;;;;3.24;100.00;95746.88;5075035;28;20028;-69
2022/11/30 00:04:15;;;;;;;11.05;9.95;;;;;;;3.21;100.00;95748.84;5082688;28;20472;-68
2022/11/30 00:06:41;;;;;;;9.45;8.55;;;;;;;3.23;100.00;95749.59;5082775;28;20017;-69
2022/11/30 00:09:07;;;;;;;11.00;8.68;;;;;;;3.25;100.00;95751.16;5080094;28;20035;-68
2022/11/30 00:11:32;;;;;;;9.38;8.48;;;;;;;3.29;100.00;95736.19;5076615;28;20028;-68
2022/11/30 00:13:58;;;;;;;9.95;8.95;;;;;;;3.29;100.00;95744.00;5074206;28;20048;-69
2022/11/30 00:16:23;;;;;;;9.98;8.98;;;;;;;3.29;100.00;95739.63;5076878;28;20025;-68
2022/11/30 00:18:49;;;;;;;12.15;10.50;;;;;;;3.30;100.00;95745.66;5080731;28;20044;-60
2022/11/30 00:21:15;;;;;;;11.45;10.27;;;;;;;3.29;100.00;95737.00;5074304;28;20103;-70
2022/11/30 00:23:42;;;;;;;14.23;11.98;;;;;;;3.26;100.00;95739.00;5076204;28;20026;-70
2022/11/30 00:26:11;;;;;;;13.02;11.65;;;;;;;3.25;100.00;95737.31;5073707;28;20016;-70
2022/11/30 00:28:38;;;;;;;13.40;12.10;;;;;;;3.25;100.00;95737.31;5076201;28;20112;-70
2022/11/30 00:31:06;;;;;;;12.80;11.60;;;;;;;3.28;100.00;95735.34;5076504;28;20036;-70
2022/11/30 00:33:33;;;;;;;24.85;20.02;;;;;;;3.31;100.00;95729.13;5072957;28;20076;-70
2022/11/30 00:36:01;;;;;;;49.30;30.73;;;;;;;3.31;100.00;95739.53;5074967;28;20051;-70
2022/11/30 00:38:27;;;;;;;34.17;22.20;;;;;;;3.31;100.00;95736.94;5074045;28;20410;-60
2022/11/30 00:40:52;;;;;;;20.63;16.20;;;;;;;3.28;100.00;95739.72;5077847;28;20026;-64
2022/11/30 00:43:18;;;;;;;19.92;15.82;;;;;;;3.28;100.00;95732.75;5079278;28;20028;-64
2022/11/30 00:45:43;;;;;;;17.17;13.32;;;;;;;3.29;100.00;95734.41;5081172;28;20027;-65
2022/11/30 00:48:08;;;;;;;14.35;12.95;;;;;;;3.25;100.00;95732.94;5084519;28;20339;-64
2022/11/30 00:50:34;;;;;;;12.40;11.10;;;;;;;3.29;100.00;95736.19;5081253;28;20085;-64
2022/11/30 00:52:59;;;;;;;11.40;10.32;;;;;;;3.29;100.00;95739.63;5077489;28;20024;-65
2022/11/30 00:55:26;;;;;;;12.60;11.27;;;;;;;3.36;100.00;95734.03;5077339;28;20131;-65
2022/11/30 00:57:51;;;;;;;14.25;11.68;;;;;;;3.34;100.00;95741.94;5084626;28;20028;-60
2022/11/30 01:00:17;;;;;;;16.30;14.10;;;;;;;3.40;100.00;95740.72;5076178;28;20047;-60
2022/11/30 01:02:42;;;;;;;17.73;15.20;;;;;;;3.33;100.00;95744.66;5078807;28;20016;-60
2022/11/30 01:05:08;;;;;;;16.20;13.77;;;;;;;3.27;100.00;95745.88;5082551;28;20106;-60
2022/11/30 01:07:33;;;;;;;18.23;15.63;;;;;;;3.25;100.00;95742.53;5082303;28;20115;-60
2022/11/30 01:09:58;;;;;;;16.85;15.05;;;;;;;3.24;100.00;95741.69;5084297;28;20028;-60
2022/11/30 01:12:24;;;;;;;14.68;13.20;;;;;;;3.28;100.00;95742.34;5081235;28;20031;-60
2022/11/30 01:14:49;;;;;;;15.30;13.70;;;;;;;3.24;100.00;95738.25;5078275;28;20107;-60
2022/11/30 01:17:14;;;;;;;15.32;13.77;;;;;;;3.21;100.00;95751.47;5077308;28;20077;-60
2022/11/30 01:19:40;;;;;;;15.10;13.70;;;;;;;3.16;100.00;95749.13;5080607;28;20067;-60
2022/11/30 01:22:05;;;;;;;14.70;13.13;;;;;;;3.18;100.00;95741.22;5080881;28;20030;-59
2022/11/30 01:24:30;;;;;;;13.32;11.93;;;;;;;3.13;100.00;95744.94;5083055;28;20042;-60
2022/11/30 01:26:56;;;;;;;12.85;11.65;;;;;;;3.12;100.00;95743.28;5083371;28;20501;-60
2022/11/30 01:29:21;;;;;;;13.68;11.93;;;;;;;3.13;100.00;95742.34;5083194;28;20425;-59
2022/11/30 01:31:46;;;;;;;12.65;11.40;;;;;;;3.15;100.00;95744.88;5076530;28;20036;-60
2022/11/30 01:34:12;;;;;;;11.85;10.75;;;;;;;3.17;100.00;95747.34;5086535;28;20131;-60
2022/11/30 01:36:37;;;;;;;10.18;9.27;;;;;;;3.23;100.00;95747.00;5086589;28;20478;-64
2022/11/30 01:39:08;;;;;;;10.35;9.45;;;;;;;3.20;100.00;95750.59;5085442;28;20446;-64
2022/11/30 01:41:33;;;;;;;12.27;10.57;;;;;;;3.14;100.00;95753.59;5090147;28;20031;-64
2022/11/30 01:44:05;;;;;;;12.65;11.45;;;;;;;3.15;100.00;95750.06;5091051;28;20024;-65
2022/11/30 01:46:43;;;;;;;14.38;12.98;;;;;;;3.13;100.00;95751.94;5087686;28;20092;-65
2022/11/30 01:49:09;;;;;;;15.00;13.70;;;;;;;3.12;100.00;95745.06;5082066;28;20044;-64
2022/11/30 01:51:52;;;;;;;14.70;13.18;;;;;;;3.03;100.00;95748.22;5081640;28;20024;-65
2022/11/30 01:54:42;;;;;;;13.20;12.10;;;;;;;2.99;100.00;95747.56;5083758;28;20039;-60
2022/11/30 01:57:18;;;;;;;17.58;13.23;;;;;;;2.93;100.00;95738.38;5087450;28;20043;-60
2022/11/30 01:59:44;;;;;;;14.27;12.98;;;;;;;2.85;100.00;95741.44;5083574;28;20526;-60
2022/11/30 02:02:10;;;;;;;14.20;12.95;;;;;;;2.84;100.00;95738.91;5081660;28;20107;-60
2022/11/30 02:04:36;;;;;;;14.88;13.52;;;;;;;2.79;100.00;95736.63;5081331;28;20059;-60
2022/11/30 02:07:04;;;;;;;13.85;12.48;;;;;;;2.75;100.00;95734.28;5079986;28;20404;-59
2022/11/30 02:09:33;;;;;;;13.50;12.30;;;;;;;2.71;100.00;95733.63;5082249;28;20401;-60
2022/11/30 02:12:00;;;;;;;14.20;13.00;;;;;;;2.69;100.00;95728.53;5082527;28;20105;-60
2022/11/30 02:14:36;;;;;;;14.80;13.40;;;;;;;2.64;100.00;95733.16;5082335;28;20027;-60
2022/11/30 02:17:17;;;;;;;14.05;12.55;;;;;;;2.66;100.00;95728.72;5079078;28;20030;-60
2022/11/30 02:19:57;;;;;;;14.13;12.82;;;;;;;2.63;100.00;95743.66;5079505;28;20111;-60
2022/11/30 02:22:31;;;;;;;12.15;10.95;;;;;;;2.62;100.00;95735.00;5080013;28;20055;-60
2022/11/30 02:25:24;;;;;;;11.77;10.48;;;;;;;2.59;100.00;95735.19;5082722;28;20107;-60
2022/11/30 02:28:09;;;;;;;11.38;10.38;;;;;;;2.61;100.00;95738.53;5085184;28;20111;-60
2022/11/30 02:30:41;;;;;;;17.98;10.93;;;;;;;2.63;100.00;95735.88;5081635;28;20069;-60
2022/11/30 02:33:22;;;;;;;11.38;10.27;;;;;;;2.73;100.00;95739.56;5078419;28;20127;-68
2022/11/30 02:35:50;;;;;;;11.18;9.98;;;;;;;2.65;100.00;95736.59;5083601;28;21027;-60
2022/11/30 02:38:20;;;;;;;11.40;10.30;;;;;;;2.75;100.00;95735.09;5083809;28;20619;-60
2022/11/30 02:40:46;;;;;;;11.70;10.60;;;;;;;2.70;100.00;95747.56;5084868;28;20025;-60
2022/11/30 02:43:12;;;;;;;11.15;10.18;;;;;;;2.69;100.00;95731.13;5083210;28;20039;-60
2022/11/30 02:45:47;;;;;;;11.57;10.55;;;;;;;2.62;100.00;95737.63;5081105;28;20017;-60
2022/11/30 02:48:17;;;;;;;12.27;11.27;;;;;;;2.54;100.00;95738.09;5080901;28;20080;-60
2022/11/30 02:50:53;;;;;;;11.23;10.18;;;;;;;2.51;100.00;95740.03;5076170;28;20036;-61
2022/11/30 02:53:19;;;;;;;12.00;10.90;;;;;;;2.51;100.00;95753.03;5078527;28;20501;-60
2022/11/30 02:55:45;;;;;;;11.57;10.50;;;;;;;2.51;100.00;95740.84;5080287;28;20051;-60
2022/11/30 02:58:12;;;;;;;12.63;11.38;;;;;;;2.53;100.00;95744.19;5079943;28;20086;-61
2022/11/30 03:00:37;;;;;;;13.02;11.73;;;;;;;2.51;100.00;95755.63;5078116;28;20486;-60
2022/11/30 03:03:02;;;;;;;14.70;12.65;;;;;;;2.46;100.00;95755.06;5083077;28;20070;-60
2022/11/30 03:05:28;;;;;;;13.85;12.55;;;;;;;2.40;100.00;95751.06;5089760;28;20023;-60
2022/11/30 03:07:53;;;;;;;13.52;12.13;;;;;;;2.41;100.00;95753.56;5083027;28;20043;-60
2022/11/30 03:10:19;;;;;;;13.38;12.18;;;;;;;2.45;100.00;95751.63;5079848;28;20033;-60
2022/11/30 03:12:44;;;;;;;12.65;11.50;;;;;;;2.46;100.00;95753.28;5080581;28;20024;-60
2022/11/30 03:15:10;;;;;;;13.48;12.13;;;;;;;2.45;100.00;95745.59;5083254;28;20031;-60
2022/11/30 03:17:35;;;;;;;13.82;12.52;;;;;;;2.48;100.00;95751.44;5081039;28;20051;-60
2022/11/30 03:20:01;;;;;;;12.75;11.55;;;;;;;2.60;100.00;95749.88;5079199;28;20045;-60
2022/11/30 03:22:26;;;;;;;12.68;11.32;;;;;;;2.62;100.00;95749.78;5078845;28;20409;-60
2022/11/30 03:24:51;;;;;;;11.40;10.40;;;;;;;2.68;100.00;95749.41;5086510;28;20030;-60
2022/11/30 03:27:17;;;;;;;10.95;10.13;;;;;;;2.60;100.00;95743.84;5084499;28;20084;-60
2022/11/30 03:29:42;;;;;;;11.07;10.05;;;;;;;2.52;100.00;95736.50;5076033;28;20051;-60
2022/11/30 03:32:08;;;;;;;11.57;10.50;;;;;;;2.50;100.00;95746.97;5081878;28;20071;-61
2022/11/30 03:34:33;;;;;;;10.90;10.07;;;;;;;2.49;100.00;95739.28;5081806;28;20047;-60
2022/11/30 03:36:58;;;;;;;12.35;11.07;;;;;;;2.41;100.00;95745.75;5085153;28;20116;-61
2022/11/30 03:39:24;;;;;;;12.70;11.48;;;;;;;2.37;100.00;95748.66;5081854;28;20039;-61
2022/11/30 03:41:50;;;;;;;11.77;10.55;;;;;;;2.34;100.00;95747.06;5079914;28;20495;-61
2022/11/30 03:44:16;;;;;;;12.43;11.10;;;;;;;2.34;100.00;95752.25;5075160;28;20032;-61
2022/11/30 03:46:41;;;;;;;13.55;12.40;;;;;;;2.32;100.00;95748.91;5083739;28;20024;-60
2022/11/30 03:49:07;;;;;;;13.23;12.00;;;;;;;2.33;100.00;95747.97;5083399;28;20030;-60
2022/11/30 03:51:32;;;;;;;13.82;12.52;;;;;;;2.31;100.00;95748.97;5087290;28;20099;-59
2022/11/30 03:53:57;;;;;;;13.75;12.45;;;;;;;2.34;100.00;95752.25;5079181;28;20027;-67
2022/11/30 03:56:23;;;;;;;13.88;12.43;;;;;;;2.29;100.00;95749.91;5076949;28;20056;-67
2022/11/30 03:58:48;;;;;;;13.40;12.20;;;;;;;2.29;100.00;95752.50;5083193;28;20023;-67
2022/11/30 04:01:16;;;;;;;13.93;12.75;;;;;;;2.34;100.00;95747.06;5076824;28;20036;-68
2022/11/30 04:03:42;;;;;;;13.13;12.02;;;;;;;2.28;100.00;95743.03;5080345;28;20039;-68
2022/11/30 04:06:09;;;;;;;13.35;11.95;;;;;;;2.28;100.00;95745.66;5084360;28;20016;-68
2022/11/30 04:08:36;;;;;;;12.05;10.88;;;;;;;2.23;100.00;95749.47;5077939;28;20817;-68
2022/11/30 04:11:02;;;;;;;12.57;11.35;;;;;;;2.22;100.00;95747.78;5081048;28;20059;-67
2022/11/30 04:13:28;;;;;;;13.43;11.48;;;;;;;2.24;100.00;95749.34;5081287;28;20029;-60
2022/11/30 04:15:54;;;;;;;13.02;11.82;;;;;;;2.31;100.00;95757.63;5085016;28;20036;-60
2022/11/30 04:18:22;;;;;;;16.15;14.68;;;;;;;2.33;100.00;95750.59;5087130;28;20019;-60
2022/11/30 04:20:54;;;;;;;17.90;16.10;;;;;;;2.28;100.00;95756.03;5085735;28;20521;-61
2022/11/30 04:23:20;;;;;;;15.15;13.85;;;;;;;2.29;100.00;95755.09;5086125;28;20032;-61
2022/11/30 04:25:46;;;;;;;14.38;13.18;;;;;;;2.21;100.00;95762.53;5080084;28;20091;-61
2022/11/30 04:28:13;;;;;;;13.95;12.65;;;;;;;2.21;100.00;95748.69;5084269;28;20100;-60
2022/11/30 04:30:38;;;;;;;12.30;11.30;;;;;;;2.17;100.00;95753.25;5089181;28;20046;-65
2022/11/30 04:33:05;;;;;;;14.60;13.18;;;;;;;2.20;100.00;95755.66;5088407;28;20734;-70
2022/11/30 04:35:31;;;;;;;13.45;12.07;;;;;;;2.19;100.00;95756.59;5079239;28;20054;-70
2022/11/30 04:37:57;;;;;;;13.10;11.90;;;;;;;2.11;100.00;95751.00;5089123;28;20103;-70
2022/11/30 04:40:23;;;;;;;12.55;11.35;;;;;;;2.09;100.00;95752.81;5090800;28;20119;-70
2022/11/30 04:42:48;;;;;;;12.23;11.00;;;;;;;2.12;100.00;95755.28;5085964;28;20029;-70
2022/11/30 04:45:14;;;;;;;12.52;11.45;;;;;;;2.14;100.00;95751.66;5084449;28;20612;-70
2022/11/30 04:47:39;;;;;;;14.02;12.55;;;;;;;2.13;100.00;95746.56;5086910;28;20039;-70
2022/11/30 04:50:06;;;;;;;12.55;11.43;;;;;;;2.13;100.00;95755.16;5088554;28;20058;-69
2022/11/30 04:52:32;;;;;;;12.77;11.55;;;;;;;2.15;100.00;95753.31;5087852;28;20059;-61
2022/11/30 04:54:58;;;;;;;13.15;11.82;;;;;;;2.19;100.00;95760.94;5082908;28;20101;-59
2022/11/30 04:57:23;;;;;;;12.00;10.93;;;;;;;2.21;100.00;95757.31;5080227;28;20074;-60
2022/11/30 04:59:49;;;;;;;12.23;11.23;;;;;;;2.28;100.00;95756.03;5085094;28;20030;-60
2022/11/30 05:02:14;;;;;;;13.48;12.30;;;;;;;2.29;100.00;95755.09;5086066;28;20066;-60
2022/11/30 05:04:40;;;;;;;11.70;10.73;;;;;;;2.31;100.00;95756.78;5082702;28;20074;-60
2022/11/30 05:07:05;;;;;;;12.32;11.25;;;;;;;2.32;100.00;95754.09;5090527;28;20501;-60
2022/11/30 05:09:31;;;;;;;11.32;10.35;;;;;;;2.33;100.00;95750.59;5081875;28;20089;-60
2022/11/30 05:11:56;;;;;;;11.63;10.73;;;;;;;2.34;100.00;95748.84;5084163;28;20028;-60
2022/11/30 05:14:22;;;;;;;11.93;10.93;;;;;;;2.38;100.00;95747.72;5083860;28;20039;-60
2022/11/30 05:16:48;;;;;;;11.73;10.77;;;;;;;2.39;100.00;95745.00;5080884;28;20017;-61
2022/11/30 05:19:14;;;;;;;12.27;11.25;;;;;;;2.32;100.00;95748.91;5084843;28;20031;-60
2022/11/30 05:21:40;;;;;;;12.52;11.43;;;;;;;2.36;100.00;95749.56;5085096;28;20029;-60
2022/11/30 05:24:06;;;;;;;12.50;11.30;;;;;;;2.27;100.00;95746.56;5083091;28;20058;-60
2022/11/30 05:26:31;;;;;;;12.00;10.98;;;;;;;2.24;100.00;95751.94;5086182;28;20020;-58
2022/11/30 05:28:57;;;;;;;11.77;10.70;;;;;;;2.26;100.00;95747.50;5083087;28;20085;-70
2022/11/30 05:31:22;;;;;;;11.38;10.38;;;;;;;2.26;100.00;95744.06;5093072;28;20106;-59
2022/11/30 05:33:52;;;;;;;12.82;11.65;;;;;;;2.23;100.00;95742.50;5088754;28;20042;-60
2022/11/30 05:36:17;;;;;;;11.60;10.70;;;;;;;2.23;100.00;95749.47;5086007;28;20402;-59
2022/11/30 05:38:43;;;;;;;11.85;10.75;;;;;;;2.20;100.00;95750.47;5081151;28;20021;-59
2022/11/30 05:41:10;;;;;;;10.95;9.93;;;;;;;2.14;100.00;95756.84;5080018;28;20052;-59
2022/11/30 05:43:35;;;;;;;11.30;10.30;;;;;;;2.17;100.00;95750.66;5086368;28;20528;-60
2022/11/30 05:46:02;;;;;;;11.85;10.75;;;;;;;2.19;100.00;95758.34;5088433;28;20420;-59
2022/11/30 05:48:28;;;;;;;11.73;10.60;;;;;;;2.22;100.00;95752.97;5089331;28;20016;-57
2022/11/30 05:50:54;;;;;;;12.30;11.20;;;;;;;2.21;100.00;95749.53;5089491;28;20027;-60
2022/11/30 05:53:19;;;;;;;13.18;11.98;;;;;;;2.22;100.00;95753.81;5073181;28;20021;-60
2022/11/30 05:55:45;;;;;;;12.20;11.02;;;;;;;2.26;100.00;95757.88;5083166;28;20082;-59
2022/11/30 05:58:10;;;;;;;10.40;9.50;;;;;;;2.25;100.00;95753.63;5075737;28;20039;-59
2022/11/30 06:00:35;;;;;;;10.00;9.10;;;;;;;2.26;100.00;95759.66;5087151;28;20142;-59
2022/11/30 06:03:01;;;;;;;11.15;10.25;;;;;;;2.27;100.00;95756.97;5091162;28;20053;-60
2022/11/30 06:05:27;;;;;;;12.30;11.07;;;;;;;2.32;100.00;95764.50;5087795;28;20503;-64
2022/11/30 06:07:53;;;;;;;9.52;8.70;;;;;;;2.40;100.00;95761.47;5087000;28;20469;-61
2022/11/30 06:10:20;;;;;;;9.63;8.85;;;;;;;2.36;100.00;95763.38;5085067;28;20028;-58
2022/11/30 06:12:45;;;;;;;8.65;8.02;;;;;;;2.37;100.00;95761.63;5089134;28;20028;-58
2022/11/30 06:15:11;;;;;;;7.80;7.20;;;;;;;2.36;100.00;95767.75;5085561;28;20363;-58
2022/11/30 06:17:36;;;;;;;7.60;7.00;;;;;;;2.36;100.00;95766.00;5083987;28;20039;-57
2022/11/30 06:20:04;;;;;;;7.50;6.80;;;;;;;2.35;100.00;95771.28;5084387;28;20028;-55
2022/11/30 06:22:30;;;;;;;7.60;7.00;;;;;;;2.38;100.00;95769.31;5088922;28;20063;-56
2022/11/30 06:24:55;;;;;;;8.32;7.70;;;;;;;2.41;100.00;95773.53;5086924;28;20052;-59
2022/11/30 06:27:20;;;;;;;7.80;7.20;;;;;;;2.37;100.00;95772.84;5086281;28;20546;-61
2022/11/30 06:29:46;;;;;;;7.90;7.30;;;;;;;2.38;100.00;95771.94;5085754;28;20556;-57
2022/11/30 06:32:11;;;;;;;8.25;7.55;;;;;;;2.41;100.00;95768.31;5087491;28;20020;-57
2022/11/30 06:34:36;;;;;;;8.05;7.13;;;;;;;2.38;100.00;95768.50;5091063;28;20498;-57
2022/11/30 06:37:02;;;;;;;7.50;6.90;;;;;;;2.37;100.00;95764.25;5089429;28;20512;-56
2022/11/30 06:39:27;;;;;;;6.45;5.95;;;;;;;2.38;100.00;95765.91;5081689;28;20033;-56
2022/11/30 06:41:53;;;;;;;6.32;5.80;;;;;;;2.36;100.00;95760.78;5087285;28;20048;-57
2022/11/30 06:44:18;;;;;;;7.68;6.90;;;;;;;2.34;100.00;95770.44;5084824;28;20024;-65
2022/11/30 06:46:43;;;;;;;7.60;7.00;;;;;;;2.33;100.00;95767.94;5089472;28;20366;-60
2022/11/30 06:49:08;;;;;;;8.35;7.72;;;;;;;2.35;100.00;95771.28;5084586;28;20081;-67
2022/11/30 06:51:36;;;;;;;7.93;7.18;;;;;;;2.37;100.00;95764.25;5079917;28;20050;-67
2022/11/30 06:54:01;;;;;;;8.18;7.55;;;;;;;2.45;100.00;95769.81;5082549;28;20174;-67
2022/11/30 06:56:26;;;;;;;7.75;7.07;;;;;;;2.45;100.00;95766.41;5084809;28;20119;-68
2022/11/30 06:58:53;;;;;;;7.97;7.30;;;;;;;2.42;100.00;95767.41;5085883;28;20023;-67
2022/11/30 07:01:18;;;;;;;6.70;6.20;;;;;;;2.45;100.00;95771.59;5087783;28;20031;-68
2022/11/30 07:03:44;;;;;;;7.88;7.18;;;;;;;2.41;100.00;95773.53;5091374;28;20029;-61
2022/11/30 07:06:12;;;;;;;9.88;9.07;;;;;;;2.41;100.00;95770.94;5082474;28;20012;-64
2022/11/30 07:08:38;;;;;;;11.18;10.15;;;;;;;2.40;100.00;95772.66;5080023;28;20027;-71
2022/11/30 07:11:04;;;;;;;9.88;8.85;;;;;;;2.39;100.00;95767.59;5085459;28;20121;-71
2022/11/30 07:13:30;;;;;;;8.40;7.57;;;;;;;2.36;100.00;95766.00;5081356;28;20048;-71
2022/11/30 07:15:56;;;;;;;7.65;7.05;;;;;;;2.36;100.00;95773.78;5087281;28;20059;-73
2022/11/30 07:18:21;;;;;;;8.52;6.25;;;;;;;2.38;100.00;95771.09;5081383;28;20020;-69
2022/11/30 07:20:47;;;;;;;6.13;5.72;;;;;;;2.41;100.00;95771.75;5089748;28;20024;-69
2022/11/30 07:26:06;;;;;;;7.15;6.55;;;;;;;2.46;100.00;95781.88;5078365;28;20023;-64
2022/11/30 07:28:36;;;;;;;8.25;6.75;;;;;;;2.49;100.00;95779.09;5077652;28;20028;-64
2022/11/30 07:31:34;;;;;;;6.90;6.50;;;;;;;2.51;100.00;95779.84;5062548;28;20072;-65
2022/11/30 07:34:05;;;;;;;6.93;6.40;;;;;;;2.54;100.00;95779.69;5082451;28;20080;-67
2022/11/30 07:36:31;;;;;;;7.68;7.07;;;;;;;2.57;100.00;95776.06;5088028;28;20497;-67
2022/11/30 07:38:57;;;;;;;6.90;5.78;;;;;;;2.68;100.00;95770.22;5082443;28;20017;-65
2022/11/30 07:41:22;;;;;;;7.07;6.57;;;;;;;2.70;100.00;95773.56;5087375;28;20062;-57
2022/11/30 07:43:48;;;;;;;6.57;6.07;;;;;;;2.69;100.00;95777.09;5076544;28;20033;-60
2022/11/30 07:46:15;;;;;;;11.98;10.60;;;;;;;2.69;100.00;95771.88;5076860;28;20023;-59
2022/11/30 07:48:41;;;;;;;10.02;9.23;;;;;;;2.71;100.00;95770.03;5086383;28;20085;-59
2022/11/30 07:51:18;;;;;;;7.30;6.65;;;;;;;2.73;100.00;95768.16;5077312;28;20616;-59
2022/11/30 07:53:43;;;;;;;7.80;7.10;;;;;;;2.96;100.00;95771.16;5081088;28;20028;-60
2022/11/30 07:56:14;;;;;;;8.70;7.90;;;;;;;2.89;100.00;95772.47;5080499;28;20028;-59
2022/11/30 07:58:40;;;;;;;14.13;12.93;;;;;;;2.94;100.00;95775.59;5081374;28;20043;-59
2022/11/30 08:01:14;;;;;;;21.75;19.55;;;;;;;2.85;100.00;95782.19;5085686;28;20110;-66
2022/11/30 08:03:40;;;;;;;13.73;12.52;;;;;;;2.79;100.00;95780.81;5079601;28;20095;-65
2022/11/30 08:06:08;;;;;;;13.52;12.35;;;;;;;2.80;100.00;95782.50;5085577;28;20028;-59
2022/11/30 08:08:35;;;;;;;13.63;12.23;;;;;;;2.81;100.00;95781.56;5081369;28;20022;-59
2022/11/30 08:11:03;;;;;;;10.65;9.65;;;;;;;2.91;100.00;95779.25;5081707;28;20606;-59
2022/11/30 08:13:28;;;;;;;11.02;10.02;;;;;;;2.92;100.00;95777.47;5085511;28;20021;-59
2022/11/30 08:15:54;;;;;;;12.38;11.25;;;;;;;2.90;100.00;95782.78;5085688;28;20070;-59
2022/11/30 08:18:20;;;;;;;13.25;11.95;;;;;;;2.90;100.00;95782.78;5077059;28;20028;-60
2022/11/30 08:20:45;;;;;;;14.55;13.25;;;;;;;3.02;100.00;95778.59;5086875;28;20078;-65
2022/11/30 08:23:11;;;;;;;14.52;13.00;;;;;;;2.95;100.00;95780.72;5084270;28;20024;-59
2022/11/30 08:25:37;;;;;;;14.55;13.13;;;;;;;3.02;100.00;95781.19;5084225;28;21133;-65
2022/11/30 08:28:03;;;;;;;16.05;14.38;;;;;;;3.17;100.00;95786.38;5080075;28;20054;-65
2022/11/30 08:30:28;;;;;;;13.95;12.50;;;;;;;3.09;100.00;95781.63;5083859;28;20498;-65
2022/11/30 08:32:55;;;;;;;17.38;14.07;;;;;;;3.16;100.00;95788.16;5083359;28;20040;-65
2022/11/30 08:35:20;;;;;;;17.52;15.93;;;;;;;3.19;100.00;95789.72;5084204;28;20016;-65
2022/11/30 08:37:45;;;;;;;19.38;17.38;;;;;;;3.14;100.00;95790.84;5078082;28;20031;-65
2022/11/30 08:40:11;;;;;;;17.98;16.17;;;;;;;3.19;100.00;95792.31;5083681;28;20028;-61
2022/11/30 08:42:36;;;;;;;20.58;18.08;;;;;;;3.15;100.00;95787.31;5083619;28;20024;-58
2022/11/30 08:45:02;;;;;;;19.58;17.23;;;;;;;3.19;100.00;95787.13;5084629;28;20020;-61
2022/11/30 08:47:29;;;;;;;15.68;14.18;;;;;;;3.20;100.00;95786.19;5086535;28;20059;-61
2022/11/30 08:49:55;;;;;;;16.60;14.63;;;;;;;3.18;100.00;95785.44;5081671;28;20040;-61
2022/11/30 08:52:20;;;;;;;16.58;15.18;;;;;;;3.20;100.00;95791.38;5083392;28;20038;-61
2022/11/30 08:54:46;;;;;;;14.55;13.15;;;;;;;3.29;100.00;95786.47;5083921;28;20016;-60
2022/11/30 08:57:13;;;;;;;12.93;11.82;;;;;;;3.32;100.00;95787.22;5079379;28;20085;-60
2022/11/30 08:59:38;;;;;;;14.38;13.00;;;;;;;3.24;100.00;95788.50;5092445;28;20424;-59
2022/11/30 09:02:04;;;;;;;15.80;14.30;;;;;;;3.27;100.00;95792.72;5072301;28;20031;-62
2022/11/30 09:04:29;;;;;;;18.08;14.60;;;;;;;3.36;100.00;95786.91;5084865;28;20020;-61
2022/11/30 09:06:57;;;;;;;16.70;14.98;;;;;;;3.40;100.00;95790.19;5093246;28;20452;-60
2022/11/30 09:09:23;;;;;;;15.45;14.00;;;;;;;3.37;100.00;95793.78;5084567;28;20047;-60
2022/11/30 09:11:49;;;;;;;16.75;15.15;;;;;;;3.38;100.00;95800.66;5081414;28;20025;-60
2022/11/30 09:14:14;;;;;;;15.75;14.25;;;;;;;3.44;100.00;95800.31;5084793;28;20279;-60
2022/11/30 09:16:39;;;;;;;16.92;15.43;;;;;;;3.38;100.00;95787.66;5093683;28;20119;-59
2022/11/30 09:19:05;;;;;;;16.60;15.07;;;;;;;3.45;100.00;95793.31;5088373;28;20031;-59
2022/11/30 09:21:30;;;;;;;17.08;15.48;;;;;;;3.64;100.00;95793.00;5083518;28;20066;-65
2022/11/30 09:23:56;;;;;;;18.38;14.18;;;;;;;3.58;100.00;95801.19;5082242;28;20024;-65
2022/11/30 09:26:24;;;;;;;15.25;13.85;;;;;;;3.51;100.00;95799.91;5091529;28;20020;-65
2022/11/30 09:28:50;;;;;;;15.02;13.13;;;;;;;3.51;100.00;95795.53;5089661;28;20443;-65
2022/11/30 09:31:23;;;;;;;17.95;15.93;;;;;;;3.63;100.00;95801.75;5077740;28;20513;-65
2022/11/30 09:33:50;;;;;;;17.98;16.17;;;;;;;3.63;100.00;95799.13;5084390;28;20383;-65
2022/11/30 09:36:20;;;;;;;20.05;17.13;;;;;;;3.64;100.00;95806.00;5089141;28;20050;-64
2022/11/30 09:38:46;;;;;;;21.45;19.25;;;;;;;3.69;100.00;95809.19;5087462;28;20032;-65
2022/11/30 09:41:12;;;;;;;20.33;18.15;;;;;;;3.73;100.00;95802.00;5084407;28;20020;-65
2022/11/30 09:44:06;;;;;;;20.80;18.60;;;;;;;3.61;100.00;95805.41;5087347;28;20038;-64
2022/11/30 09:46:49;;;;;;;20.35;18.25;;;;;;;3.57;100.00;95802.97;5091331;28;20197;-65
2022/11/30 09:49:32;;;;;;;19.88;18.05;;;;;;;3.58;100.00;95809.00;5083822;28;20028;-65
2022/11/30 09:52:03;;;;;;;18.45;16.58;;;;;;;3.63;100.00;95804.34;5081641;28;20021;-65
2022/11/30 09:54:40;;;;;;;18.67;16.98;;;;;;;3.60;100.00;95799.34;5086864;28;20034;-65
2022/11/30 09:57:24;;;;;;;17.20;15.50;;;;;;;3.63;100.00;95806.13;5086861;28;20055;-64
2022/11/30 09:59:58;;;;;;;21.23;16.40;;;;;;;3.64;100.00;95803.41;5086725;28;20045;-56
2022/11/30 10:02:28;;;;;;;21.00;19.13;;;;;;;3.69;100.00;95798.78;5084474;28;20028;-65
2022/11/30 10:04:54;;;;;;;17.90;16.30;;;;;;;3.71;100.00;95798.66;5081062;28;20089;-65
2022/11/30 10:07:40;;;;;;;20.33;18.15;;;;;;;3.68;100.00;95804.06;5085090;28;20024;-65
2022/11/30 10:10:30;;;;;;;19.67;17.77;;;;;;;3.65;100.00;95797.31;5083783;28;20028;-65
2022/11/30 10:12:55;;;;;;;17.58;15.73;;;;;;;3.63;100.00;95796.53;5086186;28;20028;-65
2022/11/30 10:15:26;;;;;;;15.30;13.95;;;;;;;3.62;100.00;95800.06;5081666;28;20027;-65
2022/11/30 10:18:06;;;;;;;15.23;13.82;;;;;;;3.64;100.00;95797.38;5090374;28;20029;-61
2022/11/30 10:20:49;;;;;;;17.00;14.90;;;;;;;3.68;100.00;95796.25;5094645;28;20020;-59
2022/11/30 10:24:05;;;;;;;15.93;14.38;;;;;;;3.73;100.00;95792.44;5088184;28;20020;-60
2022/11/30 10:26:37;;;;;;;13.83;12.50;;;;;;;3.75;100.00;95787.09;5082962;28;20016;-59
2022/11/30 10:29:18;;;;;;;13.93;12.65;;;;;;;3.80;100.00;95789.44;5084835;28;20356;-59
2022/11/30 10:31:46;;;;;;;15.40;13.88;;;;;;;3.87;100.00;95788.13;5087903;28;20020;-59
2022/11/30 10:34:19;;;;;;;16.58;15.02;;;;;;;3.98;100.00;95771.81;5081347;28;20131;-59
2022/11/30 10:36:51;;;;;;;15.20;13.80;;;;;;;4.09;100.00;95782.34;5086797;28;20028;-58
2022/11/30 10:39:23;;;;;;;15.50;13.82;;;;;;;3.96;100.00;95777.09;5084760;28;20035;-65
2022/11/30 10:42:22;;;;;;;15.13;13.70;;;;;;;3.95;100.00;95772.81;5085986;28;20024;-65
2022/11/30 10:45:16;;;;;;;13.48;12.18;;;;;;;3.97;100.00;95786.59;5065897;28;20076;-65
2022/11/30 10:47:50;;;;;;;14.02;12.65;;;;;;;4.13;100.00;95777.78;5085308;28;20089;-64
2022/11/30 10:50:16;;;;;;;15.15;13.80;;;;;;;4.18;100.00;95780.91;5083961;28;20484;-65
2022/11/30 10:52:50;;;;;;;14.95;13.55;;;;;;;4.21;100.00;95772.91;5084765;28;20037;-64
2022/11/30 10:55:24;;;;;;;15.07;13.60;;;;;;;4.22;100.00;95776.34;5079741;28;20036;-58
2022/11/30 10:57:56;;;;;;;17.67;15.82;;;;;;;4.25;100.00;95773.53;5084269;28;20031;-64
2022/11/30 11:00:22;;;;;;;23.90;20.50;;;;;;;4.29;100.00;95781.03;5082465;28;20038;-59
2022/11/30 11:02:49;;;;;;;35.42;28.38;;;;;;;4.25;100.00;95771.75;5083859;28;20107;-59
2022/11/30 11:05:27;;;;;;;22.17;19.98;;;;;;;4.35;100.00;95771.16;5080135;28;20059;-59
2022/11/30 11:07:54;;;;;;;17.05;15.45;;;;;;;4.39;100.00;95768.22;5084325;28;20032;-60
2022/11/30 11:10:27;;;;;;;15.65;14.15;;;;;;;4.47;100.00;95766.91;5081438;28;20448;-60
2022/11/30 11:12:54;;;;;;;15.32;13.95;;;;;;;4.48;100.00;95766.78;5084613;28;20024;-59
2022/11/30 11:15:26;;;;;;;18.77;16.25;;;;;;;4.55;100.00;95770.66;5090885;28;20063;-61
2022/11/30 11:18:10;;;;;;;20.58;18.67;;;;;;;4.56;100.00;95767.13;5084902;28;20035;-65
2022/11/30 11:20:38;;;;;;;21.33;19.17;;;;;;;4.55;100.00;95765.47;5084448;28;20043;-65
2022/11/30 11:23:04;;;;;;;20.35;18.00;;;;;;;4.52;100.00;95765.63;5088476;28;20032;-65
2022/11/30 11:25:35;;;;;;;19.55;17.75;;;;;;;4.46;100.00;95762.63;5083851;28;20468;-65
2022/11/30 11:28:12;;;;;;;17.58;15.77;;;;;;;4.65;100.00;95768.28;5094596;28;20418;-65